sensor_id;sensor_type;location;lat;lon;timestamp;noise_LAeq;noise_LA_min;noise_LA_max;noise_LA01;noise_LA95
37163;Laerm;23057;48.554;14.454;2023-12-07T00:02:07;37.67;33.44;40.23;;
37163;Laerm;23057;48.554;14.454;2023-12-07T00:04:38;37.67;33.90;40.53;;
37163;Laerm;23057;48.554;14.454;2023-12-07T00:07:09;37.65;32.93;40.13;;
37163;Laerm;23057;48.554;14.454;2023-12-07T00:09:39;37.67;33.90;40.08;;
37163;Laerm;23057;48.554;14.454;2023-12-07T00:12:10;37.64;34.31;40.23;;
37163;Laerm;23057;48.554;14.454;2023-12-07T00:14:41;37.64;34.31;40.23;;
37163;Laerm;23057;48.554;14.454;2023-12-07T00:17:12;37.66;33.90;40.23;;
37163;Laerm;23057;48.554;14.454;2023-12-07T00:19:43;37.64;33.90;39.92;;
37163;Laerm;23057;48.554;14.454;2023-12-07T00:22:13;37.64;33.90;40.13;;
37163;Laerm;23057;48.554;14.454;2023-12-07T00:24:45;37.63;33.44;40.33;;
37163;Laerm;23057;48.554;14.454;2023-12-07T00:27:15;37.66;34.31;40.13;;
37163;Laerm;23057;48.554;14.454;2023-12-07T00:29:46;37.64;34.31;40.03;;
37163;Laerm;23057;48.554;14.454;2023-12-07T00:32:17;37.67;33.90;40.53;;
37163;Laerm;23057;48.554;14.454;2023-12-07T00:34:48;37.67;34.69;40.13;;
37163;Laerm;23057;48.554;14.454;2023-12-07T00:37:19;37.64;33.90;40.23;;
37163;Laerm;23057;48.554;14.454;2023-12-07T00:39:50;37.66;33.90;40.71;;
37163;Laerm;23057;48.554;14.454;2023-12-07T00:42:21;37.65;34.31;40.13;;
37163;Laerm;23057;48.554;14.454;2023-12-07T00:44:52;37.66;32.93;40.23;;
37163;Laerm;23057;48.554;14.454;2023-12-07T00:47:23;37.64;34.31;40.62;;
37163;Laerm;23057;48.554;14.454;2023-12-07T00:49:53;37.66;34.31;40.13;;
37163;Laerm;23057;48.554;14.454;2023-12-07T00:52:24;37.64;33.90;40.53;;
37163;Laerm;23057;48.554;14.454;2023-12-07T00:54:55;37.64;34.31;40.33;;
37163;Laerm;23057;48.554;14.454;2023-12-07T00:57:26;37.65;33.44;40.23;;
37163;Laerm;23057;48.554;14.454;2023-12-07T00:59:57;37.63;33.44;40.03;;
37163;Laerm;23057;48.554;14.454;2023-12-07T01:02:28;37.64;33.90;40.23;;
37163;Laerm;23057;48.554;14.454;2023-12-07T01:04:59;37.64;34.31;39.92;;
37163;Laerm;23057;48.554;14.454;2023-12-07T01:07:30;37.64;33.90;40.71;;
37163;Laerm;23057;48.554;14.454;2023-12-07T01:10:00;37.64;34.31;40.33;;
37163;Laerm;23057;48.554;14.454;2023-12-07T01:12:31;37.63;33.44;40.23;;
37163;Laerm;23057;48.554;14.454;2023-12-07T01:15:03;37.64;34.31;40.13;;
37163;Laerm;23057;48.554;14.454;2023-12-07T01:17:34;37.65;33.44;40.33;;
37163;Laerm;23057;48.554;14.454;2023-12-07T01:20:07;37.66;33.90;40.23;;
37163;Laerm;23057;48.554;14.454;2023-12-07T01:22:44;37.63;33.44;40.03;;
37163;Laerm;23057;48.554;14.454;2023-12-07T01:25:16;37.66;33.55;40.03;;
37163;Laerm;23057;48.554;14.454;2023-12-07T01:27:51;37.66;33.55;40.45;;
37163;Laerm;23057;48.554;14.454;2023-12-07T01:30:22;37.65;33.97;40.13;;
37163;Laerm;23057;48.554;14.454;2023-12-07T01:32:53;37.67;32.93;40.23;;
37163;Laerm;23057;48.554;14.454;2023-12-07T01:35:24;37.65;34.31;40.03;;
37163;Laerm;23057;48.554;14.454;2023-12-07T01:37:55;37.66;33.90;40.33;;
37163;Laerm;23057;48.554;14.454;2023-12-07T01:40:26;37.63;34.31;40.03;;
37163;Laerm;23057;48.554;14.454;2023-12-07T01:42:56;37.64;33.44;39.92;;
37163;Laerm;23057;48.554;14.454;2023-12-07T01:45:27;37.66;33.90;40.43;;
37163;Laerm;23057;48.554;14.454;2023-12-07T01:47:58;37.68;33.90;40.03;;
37163;Laerm;23057;48.554;14.454;2023-12-07T01:50:30;37.66;33.44;40.03;;
37163;Laerm;23057;48.554;14.454;2023-12-07T01:53:03;37.66;33.44;40.43;;
37163;Laerm;23057;48.554;14.454;2023-12-07T01:55:35;37.65;34.31;40.33;;
37163;Laerm;23057;48.554;14.454;2023-12-07T01:58:07;37.67;34.31;40.13;;
37163;Laerm;23057;48.554;14.454;2023-12-07T02:00:38;37.66;33.44;39.92;;
37163;Laerm;23057;48.554;14.454;2023-12-07T02:03:09;37.64;33.90;40.13;;
37163;Laerm;23057;48.554;14.454;2023-12-07T02:05:48;37.64;34.31;40.03;;
37163;Laerm;23057;48.554;14.454;2023-12-07T02:08:21;37.64;33.90;40.71;;
37163;Laerm;23057;48.554;14.454;2023-12-07T02:10:52;37.65;32.35;40.23;;
37163;Laerm;23057;48.554;14.454;2023-12-07T02:13:23;37.67;34.31;40.13;;
37163;Laerm;23057;48.554;14.454;2023-12-07T02:15:58;37.66;33.44;40.23;;
37163;Laerm;23057;48.554;14.454;2023-12-07T02:18:51;37.67;33.90;40.23;;
37163;Laerm;23057;48.554;14.454;2023-12-07T02:21:38;37.66;34.31;40.23;;
37163;Laerm;23057;48.554;14.454;2023-12-07T02:24:21;37.66;34.31;40.62;;
37163;Laerm;23057;48.554;14.454;2023-12-07T02:26:52;37.67;34.31;40.23;;
37163;Laerm;23057;48.554;14.454;2023-12-07T02:29:23;37.68;34.31;40.43;;
37163;Laerm;23057;48.554;14.454;2023-12-07T02:31:54;37.65;33.90;40.23;;
37163;Laerm;23057;48.554;14.454;2023-12-07T02:34:25;37.66;33.90;40.53;;
37163;Laerm;23057;48.554;14.454;2023-12-07T02:36:59;37.66;34.31;40.13;;
37163;Laerm;23057;48.554;14.454;2023-12-07T02:39:32;37.65;34.31;40.23;;
37163;Laerm;23057;48.554;14.454;2023-12-07T02:42:04;37.67;33.90;40.33;;
37163;Laerm;23057;48.554;14.454;2023-12-07T02:44:36;37.66;32.93;40.62;;
37163;Laerm;23057;48.554;14.454;2023-12-07T02:47:08;37.64;34.31;40.33;;
37163;Laerm;23057;48.554;14.454;2023-12-07T02:49:39;37.66;33.90;40.08;;
37163;Laerm;23057;48.554;14.454;2023-12-07T02:52:10;37.63;34.31;40.13;;
37163;Laerm;23057;48.554;14.454;2023-12-07T02:54:41;37.69;33.44;40.43;;
37163;Laerm;23057;48.554;14.454;2023-12-07T02:57:12;37.64;33.90;40.03;;
37163;Laerm;23057;48.554;14.454;2023-12-07T02:59:45;37.64;32.35;40.23;;
37163;Laerm;23057;48.554;14.454;2023-12-07T03:02:16;37.64;34.31;40.53;;
37163;Laerm;23057;48.554;14.454;2023-12-07T03:04:47;37.64;33.44;40.33;;
37163;Laerm;23057;48.554;14.454;2023-12-07T03:07:17;37.63;32.35;40.43;;
37163;Laerm;23057;48.554;14.454;2023-12-07T03:09:48;37.65;33.90;40.13;;
37163;Laerm;23057;48.554;14.454;2023-12-07T03:12:19;37.68;33.44;40.89;;
37163;Laerm;23057;48.554;14.454;2023-12-07T03:14:50;37.63;33.44;40.33;;
37163;Laerm;23057;48.554;14.454;2023-12-07T03:17:21;37.66;34.31;40.33;;
37163;Laerm;23057;48.554;14.454;2023-12-07T03:19:51;37.66;33.44;40.43;;
37163;Laerm;23057;48.554;14.454;2023-12-07T03:22:22;37.63;33.90;40.23;;
37163;Laerm;23057;48.554;14.454;2023-12-07T03:24:53;37.63;33.90;40.13;;
37163;Laerm;23057;48.554;14.454;2023-12-07T03:27:24;37.64;34.31;40.23;;
37163;Laerm;23057;48.554;14.454;2023-12-07T03:29:55;37.64;33.44;39.92;;
37163;Laerm;23057;48.554;14.454;2023-12-07T03:32:25;37.64;34.31;40.33;;
37163;Laerm;23057;48.554;14.454;2023-12-07T03:34:56;37.66;34.31;40.53;;
37163;Laerm;23057;48.554;14.454;2023-12-07T03:37:27;37.64;33.90;40.23;;
37163;Laerm;23057;48.554;14.454;2023-12-07T03:39:58;37.62;32.93;40.03;;
37163;Laerm;23057;48.554;14.454;2023-12-07T03:42:29;37.63;34.31;39.92;;
37163;Laerm;23057;48.554;14.454;2023-12-07T03:44:59;37.62;33.90;40.13;;
37163;Laerm;23057;48.554;14.454;2023-12-07T03:47:30;37.63;34.31;40.13;;
37163;Laerm;23057;48.554;14.454;2023-12-07T03:50:01;37.61;34.31;40.03;;
37163;Laerm;23057;48.554;14.454;2023-12-07T03:52:32;37.63;32.35;40.33;;
37163;Laerm;23057;48.554;14.454;2023-12-07T03:55:03;37.63;33.90;40.33;;
37163;Laerm;23057;48.554;14.454;2023-12-07T03:57:34;37.64;34.31;40.23;;
37163;Laerm;23057;48.554;14.454;2023-12-07T04:00:06;37.64;33.90;40.43;;
37163;Laerm;23057;48.554;14.454;2023-12-07T04:02:39;37.62;33.90;40.33;;
37163;Laerm;23057;48.554;14.454;2023-12-07T04:05:09;37.62;34.31;40.43;;
37163;Laerm;23057;48.554;14.454;2023-12-07T04:07:40;37.62;34.31;40.13;;
37163;Laerm;23057;48.554;14.454;2023-12-07T04:10:12;37.64;34.31;40.13;;
37163;Laerm;23057;48.554;14.454;2023-12-07T04:12:43;37.62;33.90;40.23;;
37163;Laerm;23057;48.554;14.454;2023-12-07T04:15:13;37.62;34.31;40.03;;
37163;Laerm;23057;48.554;14.454;2023-12-07T04:17:44;37.62;33.90;40.33;;
37163;Laerm;23057;48.554;14.454;2023-12-07T04:20:15;37.62;32.93;40.43;;
37163;Laerm;23057;48.554;14.454;2023-12-07T04:22:46;37.63;33.90;40.23;;
37163;Laerm;23057;48.554;14.454;2023-12-07T04:25:17;37.64;34.31;40.13;;
37163;Laerm;23057;48.554;14.454;2023-12-07T04:27:47;37.64;33.90;40.23;;
37163;Laerm;23057;48.554;14.454;2023-12-07T04:30:18;37.64;32.93;40.23;;
37163;Laerm;23057;48.554;14.454;2023-12-07T04:32:49;37.64;33.90;40.08;;
37163;Laerm;23057;48.554;14.454;2023-12-07T04:35:20;37.63;34.31;40.03;;
37163;Laerm;23057;48.554;14.454;2023-12-07T04:37:51;37.61;34.31;40.13;;
37163;Laerm;23057;48.554;14.454;2023-12-07T04:40:21;37.62;33.90;40.33;;
37163;Laerm;23057;48.554;14.454;2023-12-07T04:42:53;37.64;34.31;40.53;;
37163;Laerm;23057;48.554;14.454;2023-12-07T04:45:23;37.61;33.44;40.13;;
37163;Laerm;23057;48.554;14.454;2023-12-07T04:47:54;37.63;34.31;40.23;;
37163;Laerm;23057;48.554;14.454;2023-12-07T04:50:27;37.65;33.90;39.92;;
37163;Laerm;23057;48.554;14.454;2023-12-07T04:52:58;37.61;33.44;40.03;;
37163;Laerm;23057;48.554;14.454;2023-12-07T04:55:29;37.63;34.31;40.43;;
37163;Laerm;23057;48.554;14.454;2023-12-07T04:58:00;37.62;33.90;40.33;;
37163;Laerm;23057;48.554;14.454;2023-12-07T05:00:31;37.65;32.35;40.13;;
37163;Laerm;23057;48.554;14.454;2023-12-07T05:03:02;37.63;33.90;40.03;;
37163;Laerm;23057;48.554;14.454;2023-12-07T05:05:33;37.65;33.90;39.92;;
37163;Laerm;23057;48.554;14.454;2023-12-07T05:08:04;37.62;32.93;40.23;;
37163;Laerm;23057;48.554;14.454;2023-12-07T05:10:35;37.61;33.44;40.43;;
37163;Laerm;23057;48.554;14.454;2023-12-07T05:13:05;37.62;34.31;40.13;;
37163;Laerm;23057;48.554;14.454;2023-12-07T05:15:36;37.60;33.44;40.03;;
37163;Laerm;23057;48.554;14.454;2023-12-07T05:18:07;37.62;33.90;40.23;;
37163;Laerm;23057;48.554;14.454;2023-12-07T05:20:38;37.62;34.31;40.23;;
37163;Laerm;23057;48.554;14.454;2023-12-07T05:23:10;37.64;34.31;40.23;;
37163;Laerm;23057;48.554;14.454;2023-12-07T05:25:40;37.63;33.44;40.43;;
37163;Laerm;23057;48.554;14.454;2023-12-07T05:28:11;37.64;33.90;40.13;;
37163;Laerm;23057;48.554;14.454;2023-12-07T05:30:42;37.61;33.90;40.23;;
37163;Laerm;23057;48.554;14.454;2023-12-07T05:33:13;37.62;33.90;40.53;;
37163;Laerm;23057;48.554;14.454;2023-12-07T05:35:44;37.59;33.44;40.23;;
37163;Laerm;23057;48.554;14.454;2023-12-07T05:38:15;37.62;34.31;40.13;;
37163;Laerm;23057;48.554;14.454;2023-12-07T05:40:45;37.60;30.89;40.33;;
37163;Laerm;23057;48.554;14.454;2023-12-07T05:43:16;37.59;33.90;40.03;;
37163;Laerm;23057;48.554;14.454;2023-12-07T05:45:47;37.60;32.93;40.03;;
37163;Laerm;23057;48.554;14.454;2023-12-07T05:48:18;37.61;33.90;40.53;;
37163;Laerm;23057;48.554;14.454;2023-12-07T05:50:49;37.60;32.93;40.23;;
37163;Laerm;23057;48.554;14.454;2023-12-07T05:53:20;37.61;33.44;39.92;;
37163;Laerm;23057;48.554;14.454;2023-12-07T05:55:51;37.61;33.44;40.23;;
37163;Laerm;23057;48.554;14.454;2023-12-07T05:58:21;37.60;34.31;40.03;;
37163;Laerm;23057;48.554;14.454;2023-12-07T06:00:52;37.61;33.44;40.23;;
37163;Laerm;23057;48.554;14.454;2023-12-07T06:03:23;37.63;33.55;40.03;;
37163;Laerm;23057;48.554;14.454;2023-12-07T06:05:55;37.60;33.44;40.13;;
37163;Laerm;23057;48.554;14.454;2023-12-07T06:08:26;37.61;33.90;40.33;;
37163;Laerm;23057;48.554;14.454;2023-12-07T06:10:57;37.61;32.93;40.03;;
37163;Laerm;23057;48.554;14.454;2023-12-07T06:13:28;37.60;33.90;40.13;;
37163;Laerm;23057;48.554;14.454;2023-12-07T06:15:59;37.63;33.44;40.33;;
37163;Laerm;23057;48.554;14.454;2023-12-07T06:18:31;37.62;33.44;40.33;;
37163;Laerm;23057;48.554;14.454;2023-12-07T06:21:02;37.61;33.90;40.23;;
37163;Laerm;23057;48.554;14.454;2023-12-07T06:23:34;37.62;33.90;40.43;;
37163;Laerm;23057;48.554;14.454;2023-12-07T06:26:04;37.60;33.90;40.43;;
37163;Laerm;23057;48.554;14.454;2023-12-07T06:28:37;37.61;33.90;40.43;;
37163;Laerm;23057;48.554;14.454;2023-12-07T06:31:08;37.62;34.69;40.13;;
37163;Laerm;23057;48.554;14.454;2023-12-07T06:33:40;37.57;33.90;40.13;;
37163;Laerm;23057;48.554;14.454;2023-12-07T06:36:18;37.61;33.90;40.03;;
37163;Laerm;23057;48.554;14.454;2023-12-07T06:38:50;37.61;33.90;40.33;;
37163;Laerm;23057;48.554;14.454;2023-12-07T06:41:21;37.61;32.93;40.03;;
37163;Laerm;23057;48.554;14.454;2023-12-07T06:43:51;37.61;33.44;40.03;;
37163;Laerm;23057;48.554;14.454;2023-12-07T06:46:22;37.61;34.31;40.62;;
37163;Laerm;23057;48.554;14.454;2023-12-07T06:48:54;37.61;33.90;40.33;;
37163;Laerm;23057;48.554;14.454;2023-12-07T06:51:24;37.60;32.93;39.92;;
37163;Laerm;23057;48.554;14.454;2023-12-07T06:53:55;37.61;33.09;40.13;;
37163;Laerm;23057;48.554;14.454;2023-12-07T06:56:26;37.60;34.31;40.13;;
37163;Laerm;23057;48.554;14.454;2023-12-07T06:58:57;37.62;33.90;39.99;;
37163;Laerm;23057;48.554;14.454;2023-12-07T07:01:28;37.64;33.90;40.18;;
37163;Laerm;23057;48.554;14.454;2023-12-07T07:03:58;37.65;34.31;40.33;;
37163;Laerm;23057;48.554;14.454;2023-12-07T07:06:29;37.61;33.90;40.23;;
37163;Laerm;23057;48.554;14.454;2023-12-07T07:09:00;37.62;34.31;40.13;;
37163;Laerm;23057;48.554;14.454;2023-12-07T07:11:31;37.61;34.31;40.03;;
37163;Laerm;23057;48.554;14.454;2023-12-07T07:14:02;37.62;33.44;40.33;;
37163;Laerm;23057;48.554;14.454;2023-12-07T07:16:33;37.62;33.44;40.62;;
37163;Laerm;23057;48.554;14.454;2023-12-07T07:19:03;37.62;33.44;40.13;;
37163;Laerm;23057;48.554;14.454;2023-12-07T07:21:34;37.64;34.69;40.62;;
37163;Laerm;23057;48.554;14.454;2023-12-07T07:24:05;37.63;33.90;40.13;;
37163;Laerm;23057;48.554;14.454;2023-12-07T07:26:37;37.64;33.44;40.23;;
37163;Laerm;23057;48.554;14.454;2023-12-07T07:29:07;37.66;33.44;40.43;;
37163;Laerm;23057;48.554;14.454;2023-12-07T07:31:38;37.61;34.31;40.13;;
37163;Laerm;23057;48.554;14.454;2023-12-07T07:34:10;37.65;33.44;39.92;;
37163;Laerm;23057;48.554;14.454;2023-12-07T07:36:41;37.66;33.90;40.13;;
37163;Laerm;23057;48.554;14.454;2023-12-07T07:39:12;37.66;33.90;40.33;;
37163;Laerm;23057;48.554;14.454;2023-12-07T07:41:44;37.66;33.90;40.23;;
37163;Laerm;23057;48.554;14.454;2023-12-07T07:44:15;37.67;33.44;40.33;;
37163;Laerm;23057;48.554;14.454;2023-12-07T07:46:46;37.68;33.97;40.33;;
37163;Laerm;23057;48.554;14.454;2023-12-07T07:49:16;37.69;33.44;40.13;;
37163;Laerm;23057;48.554;14.454;2023-12-07T07:51:47;37.71;34.31;40.23;;
37163;Laerm;23057;48.554;14.454;2023-12-07T07:54:18;37.70;33.90;40.71;;
37163;Laerm;23057;48.554;14.454;2023-12-07T07:56:49;37.71;33.90;40.96;;
37163;Laerm;23057;48.554;14.454;2023-12-07T07:59:20;37.70;33.90;39.92;;
37163;Laerm;23057;48.554;14.454;2023-12-07T08:01:50;37.71;33.97;40.43;;
37163;Laerm;23057;48.554;14.454;2023-12-07T08:04:21;37.71;34.31;40.23;;
37163;Laerm;23057;48.554;14.454;2023-12-07T08:06:52;37.70;34.31;40.23;;
37163;Laerm;23057;48.554;14.454;2023-12-07T08:09:23;37.73;34.31;40.13;;
37163;Laerm;23057;48.554;14.454;2023-12-07T08:11:53;37.72;33.44;40.13;;
37163;Laerm;23057;48.554;14.454;2023-12-07T08:14:24;37.72;34.31;40.33;;
37163;Laerm;23057;48.554;14.454;2023-12-07T08:16:55;37.75;34.31;40.45;;
37163;Laerm;23057;48.554;14.454;2023-12-07T08:19:26;37.70;33.90;40.33;;
37163;Laerm;23057;48.554;14.454;2023-12-07T08:21:57;37.72;34.31;40.33;;
37163;Laerm;23057;48.554;14.454;2023-12-07T08:24:28;37.70;33.90;40.33;;
37163;Laerm;23057;48.554;14.454;2023-12-07T08:26:58;37.72;33.44;40.03;;
37163;Laerm;23057;48.554;14.454;2023-12-07T08:29:29;37.72;33.44;40.43;;
37163;Laerm;23057;48.554;14.454;2023-12-07T08:32:00;37.72;33.44;40.03;;
37163;Laerm;23057;48.554;14.454;2023-12-07T08:34:31;37.73;33.90;40.23;;
37163;Laerm;23057;48.554;14.454;2023-12-07T08:37:02;37.75;33.90;40.23;;
37163;Laerm;23057;48.554;14.454;2023-12-07T08:39:33;37.74;34.31;40.23;;
37163;Laerm;23057;48.554;14.454;2023-12-07T08:42:04;37.74;33.44;40.13;;
37163;Laerm;23057;48.554;14.454;2023-12-07T08:44:35;37.73;33.44;40.43;;
37163;Laerm;23057;48.554;14.454;2023-12-07T08:47:06;37.73;34.69;40.53;;
37163;Laerm;23057;48.554;14.454;2023-12-07T08:49:37;37.73;33.90;40.23;;
37163;Laerm;23057;48.554;14.454;2023-12-07T08:52:08;37.70;34.31;40.13;;
37163;Laerm;23057;48.554;14.454;2023-12-07T08:54:39;37.76;33.90;40.62;;
37163;Laerm;23057;48.554;14.454;2023-12-07T08:57:09;37.75;33.90;40.43;;
37163;Laerm;23057;48.554;14.454;2023-12-07T08:59:40;37.73;34.31;40.43;;
37163;Laerm;23057;48.554;14.454;2023-12-07T09:02:11;37.72;33.90;40.03;;
37163;Laerm;23057;48.554;14.454;2023-12-07T09:04:42;37.73;32.93;40.62;;
37163;Laerm;23057;48.554;14.454;2023-12-07T09:07:13;37.73;33.44;40.71;;
37163;Laerm;23057;48.554;14.454;2023-12-07T09:09:46;37.75;34.31;40.13;;
37163;Laerm;23057;48.554;14.454;2023-12-07T09:12:18;37.73;32.93;40.62;;
37163;Laerm;23057;48.554;14.454;2023-12-07T09:14:49;37.75;34.31;40.23;;
37163;Laerm;23057;48.554;14.454;2023-12-07T09:17:20;37.73;33.90;40.33;;
37163;Laerm;23057;48.554;14.454;2023-12-07T09:19:50;37.73;34.31;40.54;;
37163;Laerm;23057;48.554;14.454;2023-12-07T09:22:21;37.75;33.44;40.23;;
37163;Laerm;23057;48.554;14.454;2023-12-07T09:24:52;37.72;33.44;40.53;;
37163;Laerm;23057;48.554;14.454;2023-12-07T09:27:23;37.74;33.90;40.43;;
37163;Laerm;23057;48.554;14.454;2023-12-07T09:29:53;37.76;34.31;40.23;;
37163;Laerm;23057;48.554;14.454;2023-12-07T09:32:24;37.76;32.35;40.33;;
37163;Laerm;23057;48.554;14.454;2023-12-07T09:34:55;37.74;33.90;40.62;;
37163;Laerm;23057;48.554;14.454;2023-12-07T09:37:26;37.75;34.31;40.43;;
37163;Laerm;23057;48.554;14.454;2023-12-07T09:39:57;37.76;33.90;40.33;;
37163;Laerm;23057;48.554;14.454;2023-12-07T09:42:28;37.76;34.31;40.53;;
37163;Laerm;23057;48.554;14.454;2023-12-07T09:44:59;37.77;34.31;40.62;;
37163;Laerm;23057;48.554;14.454;2023-12-07T09:47:32;37.74;34.31;40.45;;
37163;Laerm;23057;48.554;14.454;2023-12-07T09:50:07;37.75;34.69;40.23;;
37163;Laerm;23057;48.554;14.454;2023-12-07T09:52:39;37.74;34.31;40.43;;
37163;Laerm;23057;48.554;14.454;2023-12-07T09:55:11;37.73;34.31;40.43;;
37163;Laerm;23057;48.554;14.454;2023-12-07T09:57:42;37.73;34.31;40.43;;
37163;Laerm;23057;48.554;14.454;2023-12-07T10:00:14;37.76;34.31;40.33;;
37163;Laerm;23057;48.554;14.454;2023-12-07T10:02:46;37.76;33.90;40.43;;
37163;Laerm;23057;48.554;14.454;2023-12-07T10:05:17;37.75;34.69;40.33;;
37163;Laerm;23057;48.554;14.454;2023-12-07T10:07:50;37.75;33.90;40.33;;
37163;Laerm;23057;48.554;14.454;2023-12-07T10:10:21;37.75;33.90;40.13;;
37163;Laerm;23057;48.554;14.454;2023-12-07T10:12:59;37.76;33.90;40.43;;
37163;Laerm;23057;48.554;14.454;2023-12-07T10:15:30;37.75;33.97;40.43;;
37163;Laerm;23057;48.554;14.454;2023-12-07T10:18:01;37.74;33.90;40.33;;
37163;Laerm;23057;48.554;14.454;2023-12-07T10:20:32;37.74;34.31;40.23;;
37163;Laerm;23057;48.554;14.454;2023-12-07T10:23:07;37.77;33.90;40.80;;
37163;Laerm;23057;48.554;14.454;2023-12-07T10:25:42;37.75;33.90;40.53;;
37163;Laerm;23057;48.554;14.454;2023-12-07T10:28:12;37.75;33.90;40.23;;
37163;Laerm;23057;48.554;14.454;2023-12-07T10:30:44;37.78;33.90;40.71;;
37163;Laerm;23057;48.554;14.454;2023-12-07T10:33:15;37.77;33.44;40.13;;
37163;Laerm;23057;48.554;14.454;2023-12-07T10:35:47;37.79;33.44;40.43;;
37163;Laerm;23057;48.554;14.454;2023-12-07T10:38:20;37.78;33.90;41.06;;
37163;Laerm;23057;48.554;14.454;2023-12-07T10:41:06;37.81;34.31;40.53;;
37163;Laerm;23057;48.554;14.454;2023-12-07T10:43:43;37.78;33.90;40.43;;
37163;Laerm;23057;48.554;14.454;2023-12-07T10:46:15;37.84;33.90;40.43;;
37163;Laerm;23057;48.554;14.454;2023-12-07T10:49:00;37.81;33.44;40.71;;
37163;Laerm;23057;48.554;14.454;2023-12-07T10:51:57;37.77;34.69;40.13;;
37163;Laerm;23057;48.554;14.454;2023-12-07T10:55:03;37.80;34.31;40.62;;
37163;Laerm;23057;48.554;14.454;2023-12-07T10:57:36;37.84;33.90;40.43;;
37163;Laerm;23057;48.554;14.454;2023-12-07T11:00:09;37.89;33.44;40.43;;
37163;Laerm;23057;48.554;14.454;2023-12-07T11:02:42;37.88;34.69;40.43;;
37163;Laerm;23057;48.554;14.454;2023-12-07T11:05:14;37.89;33.90;40.33;;
37163;Laerm;23057;48.554;14.454;2023-12-07T11:07:59;37.98;34.69;40.98;;
37163;Laerm;23057;48.554;14.454;2023-12-07T11:11:04;37.96;34.31;40.43;;
37163;Laerm;23057;48.554;14.454;2023-12-07T11:13:38;37.79;34.31;40.36;;
37163;Laerm;23057;48.554;14.454;2023-12-07T11:16:10;37.72;34.31;40.33;;
37163;Laerm;23057;48.554;14.454;2023-12-07T11:18:40;37.71;33.90;40.23;;
37163;Laerm;23057;48.554;14.454;2023-12-07T11:21:11;37.69;33.44;40.53;;
37163;Laerm;23057;48.554;14.454;2023-12-07T11:23:43;37.72;33.90;40.18;;
37163;Laerm;23057;48.554;14.454;2023-12-07T11:26:14;37.71;33.90;40.23;;
37163;Laerm;23057;48.554;14.454;2023-12-07T11:28:45;37.72;32.35;40.23;;
37163;Laerm;23057;48.554;14.454;2023-12-07T11:31:16;37.70;33.90;40.80;;
37163;Laerm;23057;48.554;14.454;2023-12-07T11:33:47;37.69;33.90;40.13;;
37163;Laerm;23057;48.554;14.454;2023-12-07T11:36:18;37.69;34.31;40.33;;
37163;Laerm;23057;48.554;14.454;2023-12-07T11:41:40;37.68;33.90;40.43;;
37163;Laerm;23057;48.554;14.454;2023-12-07T11:44:13;37.69;33.90;40.03;;
37163;Laerm;23057;48.554;14.454;2023-12-07T11:46:44;37.69;33.55;40.23;;
37163;Laerm;23057;48.554;14.454;2023-12-07T11:49:16;37.69;34.31;40.33;;
37163;Laerm;23057;48.554;14.454;2023-12-07T11:51:46;37.72;33.44;40.33;;
37163;Laerm;23057;48.554;14.454;2023-12-07T11:54:17;37.67;33.90;40.53;;
37163;Laerm;23057;48.554;14.454;2023-12-07T11:56:54;37.71;33.90;40.23;;
37163;Laerm;23057;48.554;14.454;2023-12-07T11:59:25;37.71;34.31;40.33;;
37163;Laerm;23057;48.554;14.454;2023-12-07T12:02:00;37.69;34.31;40.13;;
37163;Laerm;23057;48.554;14.454;2023-12-07T12:04:33;37.69;32.93;42.59;;
37163;Laerm;23057;48.554;14.454;2023-12-07T12:07:04;37.73;33.90;40.43;;
37163;Laerm;23057;48.554;14.454;2023-12-07T12:09:35;37.69;33.90;40.33;;
37163;Laerm;23057;48.554;14.454;2023-12-07T12:12:06;37.71;34.31;40.23;;
37163;Laerm;23057;48.554;14.454;2023-12-07T12:14:37;37.69;33.44;40.43;;
37163;Laerm;23057;48.554;14.454;2023-12-07T12:17:08;37.68;33.44;40.23;;
37163;Laerm;23057;48.554;14.454;2023-12-07T12:19:39;37.73;32.93;40.43;;
37163;Laerm;23057;48.554;14.454;2023-12-07T12:22:10;37.68;33.90;40.13;;
37163;Laerm;23057;48.554;14.454;2023-12-07T12:24:41;37.70;33.90;40.03;;
37163;Laerm;23057;48.554;14.454;2023-12-07T12:27:14;37.68;33.90;40.43;;
37163;Laerm;23057;48.554;14.454;2023-12-07T12:29:47;37.70;33.44;40.13;;
37163;Laerm;23057;48.554;14.454;2023-12-07T12:32:19;37.70;34.31;40.13;;
37163;Laerm;23057;48.554;14.454;2023-12-07T12:34:53;37.66;33.44;40.23;;
37163;Laerm;23057;48.554;14.454;2023-12-07T12:37:24;37.66;34.31;40.33;;
37163;Laerm;23057;48.554;14.454;2023-12-07T12:39:55;37.69;33.90;40.33;;
37163;Laerm;23057;48.554;14.454;2023-12-07T12:42:27;37.64;33.44;40.13;;
37163;Laerm;23057;48.554;14.454;2023-12-07T12:44:58;37.64;32.93;40.23;;
37163;Laerm;23057;48.554;14.454;2023-12-07T12:47:29;37.65;33.90;40.13;;
37163;Laerm;23057;48.554;14.454;2023-12-07T12:50:00;37.66;33.90;40.23;;
37163;Laerm;23057;48.554;14.454;2023-12-07T12:52:31;37.67;33.90;41.06;;
37163;Laerm;23057;48.554;14.454;2023-12-07T12:55:08;37.65;34.31;40.03;;
37163;Laerm;23057;48.554;14.454;2023-12-07T12:57:39;37.66;33.90;40.33;;
37163;Laerm;23057;48.554;14.454;2023-12-07T13:00:13;37.67;33.44;40.53;;
37163;Laerm;23057;48.554;14.454;2023-12-07T13:02:44;37.65;33.44;40.23;;
37163;Laerm;23057;48.554;14.454;2023-12-07T13:05:15;37.66;32.93;40.23;;
37163;Laerm;23057;48.554;14.454;2023-12-07T13:07:45;37.65;33.90;40.03;;
37163;Laerm;23057;48.554;14.454;2023-12-07T13:10:19;37.65;34.31;40.18;;
37163;Laerm;23057;48.554;14.454;2023-12-07T13:12:49;37.65;33.44;40.13;;
37163;Laerm;23057;48.554;14.454;2023-12-07T13:15:20;37.66;33.90;40.23;;
37163;Laerm;23057;48.554;14.454;2023-12-07T13:17:51;37.69;33.90;40.13;;
37163;Laerm;23057;48.554;14.454;2023-12-07T13:20:22;37.68;33.90;40.13;;
37163;Laerm;23057;48.554;14.454;2023-12-07T13:22:54;37.68;34.31;40.23;;
37163;Laerm;23057;48.554;14.454;2023-12-07T13:25:25;37.70;33.90;43.19;;
37163;Laerm;23057;48.554;14.454;2023-12-07T13:27:56;37.73;33.90;40.33;;
37163;Laerm;23057;48.554;14.454;2023-12-07T13:30:28;37.72;33.44;40.33;;
37163;Laerm;23057;48.554;14.454;2023-12-07T13:33:00;37.70;33.90;40.13;;
37163;Laerm;23057;48.554;14.454;2023-12-07T13:35:30;37.72;33.90;40.53;;
37163;Laerm;23057;48.554;14.454;2023-12-07T13:38:03;37.70;33.90;40.33;;
37163;Laerm;23057;48.554;14.454;2023-12-07T13:40:35;37.70;33.90;40.43;;
37163;Laerm;23057;48.554;14.454;2023-12-07T13:43:07;37.68;33.90;40.23;;
37163;Laerm;23057;48.554;14.454;2023-12-07T13:45:39;37.73;33.90;40.13;;
37163;Laerm;23057;48.554;14.454;2023-12-07T13:48:10;37.70;34.31;40.03;;
37163;Laerm;23057;48.554;14.454;2023-12-07T13:50:43;37.71;33.44;40.53;;
37163;Laerm;23057;48.554;14.454;2023-12-07T13:53:14;37.70;33.44;40.53;;
37163;Laerm;23057;48.554;14.454;2023-12-07T13:55:46;37.71;34.31;40.23;;
37163;Laerm;23057;48.554;14.454;2023-12-07T13:58:17;37.71;33.90;40.13;;
37163;Laerm;23057;48.554;14.454;2023-12-07T14:00:48;37.70;34.31;40.33;;